createdAt,value
2017-12-27T00:00:03.209Z,0
2017-12-27T00:00:43.786Z,0
2017-12-27T00:01:24.280Z,0
2017-12-27T00:02:04.829Z,0
2017-12-27T00:02:45.384Z,0
2017-12-27T00:03:25.931Z,0
2017-12-27T00:04:06.522Z,0
2017-12-27T00:04:47.070Z,0
2017-12-27T00:05:27.551Z,0
2017-12-27T00:06:08.103Z,0
2017-12-27T00:06:48.696Z,0
2017-12-27T00:07:29.208Z,0
2017-12-27T00:08:09.747Z,0
2017-12-27T00:08:50.256Z,0
2017-12-27T00:09:30.795Z,0
2017-12-27T00:10:11.352Z,0
2017-12-27T00:10:51.916Z,0
2017-12-27T00:11:32.435Z,0
2017-12-27T00:12:12.979Z,0
2017-12-27T00:12:53.552Z,0
2017-12-27T00:13:34.088Z,0
2017-12-27T00:14:14.591Z,0
2017-12-27T00:14:55.147Z,0
2017-12-27T00:15:35.680Z,0
2017-12-27T00:16:16.200Z,0
2017-12-27T00:16:56.744Z,0
2017-12-27T00:17:37.286Z,0
2017-12-27T00:18:17.848Z,0
2017-12-27T00:18:58.385Z,0
2017-12-27T00:19:38.936Z,0
2017-12-27T00:20:19.465Z,0
2017-12-27T00:21:00.034Z,0
2017-12-27T00:21:40.620Z,0
2017-12-27T00:22:21.157Z,0
2017-12-27T00:23:01.707Z,0
2017-12-27T00:23:42.272Z,0
2017-12-27T00:24:22.811Z,0
2017-12-27T00:25:03.414Z,0
2017-12-27T00:25:43.887Z,0
2017-12-27T00:26:24.470Z,0
2017-12-27T00:27:04.987Z,0
2017-12-27T00:27:45.517Z,0
2017-12-27T00:28:26.104Z,0
2017-12-27T00:29:06.607Z,0
2017-12-27T00:29:47.187Z,0
2017-12-27T00:30:27.758Z,0
2017-12-27T00:31:08.319Z,0
2017-12-27T00:31:48.886Z,0
2017-12-27T00:32:29.402Z,0
2017-12-27T00:33:09.955Z,0
2017-12-27T00:33:50.471Z,0
2017-12-27T00:34:31.024Z,0
2017-12-27T00:35:12.398Z,0
2017-12-27T00:35:52.970Z,0
2017-12-27T00:36:33.496Z,0
2017-12-27T00:37:14.031Z,0
2017-12-27T00:37:54.587Z,0
2017-12-27T00:38:35.133Z,0
2017-12-27T00:39:15.652Z,0
2017-12-27T00:39:56.176Z,0
2017-12-27T00:40:36.759Z,0
2017-12-27T00:41:17.258Z,0
2017-12-27T00:41:57.767Z,0
2017-12-27T00:42:38.360Z,0
2017-12-27T00:43:18.870Z,0
2017-12-27T00:43:59.397Z,0
2017-12-27T00:44:39.942Z,0
2017-12-27T00:45:20.487Z,0
2017-12-27T00:46:01.023Z,0
2017-12-27T00:46:41.607Z,0
2017-12-27T00:47:22.136Z,0
2017-12-27T00:48:02.671Z,0
2017-12-27T00:48:43.223Z,0
2017-12-27T00:49:23.777Z,0
2017-12-27T00:50:04.333Z,0
2017-12-27T00:50:44.885Z,0
2017-12-27T00:51:25.430Z,0
2017-12-27T00:52:05.971Z,0
2017-12-27T00:52:46.549Z,0
2017-12-27T00:53:27.043Z,0
2017-12-27T00:54:07.588Z,0
2017-12-27T00:54:48.135Z,0
2017-12-27T00:55:28.682Z,0
2017-12-27T00:56:09.224Z,0
2017-12-27T00:56:49.807Z,0
2017-12-27T00:57:30.370Z,0
2017-12-27T00:58:10.914Z,0
2017-12-27T00:58:51.437Z,0
2017-12-27T00:59:31.974Z,0
2017-12-27T01:00:12.535Z,0
2017-12-27T01:00:53.073Z,0
2017-12-27T01:01:33.622Z,0
2017-12-27T01:02:14.148Z,0
2017-12-27T01:02:54.691Z,0
2017-12-27T01:03:35.238Z,0
2017-12-27T01:04:15.806Z,0
2017-12-27T01:04:56.326Z,0
2017-12-27T01:05:36.897Z,0
2017-12-27T01:06:17.435Z,0
2017-12-27T01:06:57.960Z,0
2017-12-27T01:07:38.484Z,0
2017-12-27T01:08:19.027Z,0
2017-12-27T01:08:59.580Z,0
2017-12-27T01:09:40.101Z,0
2017-12-27T01:10:20.725Z,0
2017-12-27T01:11:01.275Z,0
2017-12-27T01:11:41.827Z,0
2017-12-27T01:12:22.362Z,0
2017-12-27T01:13:02.891Z,0
2017-12-27T01:13:43.459Z,0
2017-12-27T01:14:23.977Z,0
2017-12-27T01:15:04.518Z,0
2017-12-27T01:15:45.072Z,0
2017-12-27T01:16:25.616Z,0
2017-12-27T01:17:06.185Z,0
2017-12-27T01:17:46.692Z,0
2017-12-27T01:18:27.247Z,0
2017-12-27T01:19:07.825Z,0
2017-12-27T01:19:48.345Z,0
2017-12-27T01:20:28.896Z,0
2017-12-27T01:21:09.444Z,0
2017-12-27T01:21:49.984Z,0
2017-12-27T01:22:30.540Z,0
2017-12-27T01:23:11.072Z,0
2017-12-27T01:23:51.604Z,0
2017-12-27T01:24:32.141Z,0
2017-12-27T01:25:12.699Z,0
2017-12-27T01:25:53.196Z,0
2017-12-27T01:26:33.742Z,0
2017-12-27T01:27:14.291Z,0
2017-12-27T01:27:54.806Z,0
2017-12-27T01:28:35.347Z,0
2017-12-27T01:29:15.917Z,0
2017-12-27T01:29:56.480Z,0
2017-12-27T01:30:36.986Z,0
2017-12-27T01:31:17.534Z,0
2017-12-27T01:31:58.074Z,0
2017-12-27T01:32:38.635Z,0
2017-12-27T01:33:19.197Z,0
2017-12-27T01:33:59.738Z,0
2017-12-27T01:34:40.304Z,0
2017-12-27T01:35:20.871Z,0
2017-12-27T01:36:01.384Z,0
2017-12-27T01:36:41.937Z,0
2017-12-27T01:37:22.488Z,0
2017-12-27T01:38:03.022Z,0
2017-12-27T01:38:43.555Z,0
2017-12-27T01:39:24.131Z,0
2017-12-27T01:40:04.679Z,0
2017-12-27T01:40:45.251Z,0
2017-12-27T01:41:25.790Z,0
2017-12-27T01:42:06.315Z,0
2017-12-27T01:42:46.856Z,0
2017-12-27T01:43:27.409Z,0
2017-12-27T01:44:07.954Z,0
2017-12-27T01:44:48.497Z,0
2017-12-27T01:45:29.002Z,0
2017-12-27T01:46:09.546Z,0
2017-12-27T01:46:50.113Z,0
2017-12-27T01:47:30.653Z,0
2017-12-27T01:48:11.188Z,0
2017-12-27T01:48:51.732Z,0
2017-12-27T01:49:32.326Z,0
2017-12-27T01:50:12.813Z,0
2017-12-27T01:50:53.396Z,0
2017-12-27T01:51:33.960Z,0
2017-12-27T01:52:14.487Z,0
2017-12-27T01:52:55.057Z,0
2017-12-27T01:53:35.590Z,0
2017-12-27T01:54:16.123Z,0
2017-12-27T01:54:56.676Z,0
2017-12-27T01:55:37.247Z,0
2017-12-27T01:56:17.730Z,0
2017-12-27T01:56:58.267Z,0
2017-12-27T01:57:38.819Z,0
2017-12-27T01:58:19.341Z,0
2017-12-27T01:58:59.912Z,0
2017-12-27T01:59:40.459Z,0
2017-12-27T02:00:20.989Z,0
2017-12-27T02:01:01.559Z,0
2017-12-27T02:01:42.125Z,0
2017-12-27T02:02:22.654Z,0
2017-12-27T02:03:03.209Z,0
2017-12-27T02:03:43.746Z,0
2017-12-27T02:04:24.313Z,0
2017-12-27T02:05:04.852Z,0
2017-12-27T02:05:45.377Z,0
2017-12-27T02:06:25.943Z,0
2017-12-27T02:07:06.517Z,0
2017-12-27T02:07:47.060Z,0
2017-12-27T02:08:27.605Z,0
2017-12-27T02:09:08.156Z,0
2017-12-27T02:09:48.741Z,0
2017-12-27T02:10:29.276Z,0
2017-12-27T02:11:09.813Z,0
2017-12-27T02:11:50.345Z,0
2017-12-27T02:12:30.893Z,0
2017-12-27T02:13:11.454Z,0
2017-12-27T02:13:51.954Z,0
2017-12-27T02:14:32.511Z,0
2017-12-27T02:15:13.080Z,0
2017-12-27T02:15:53.609Z,0
2017-12-27T02:16:34.173Z,0
2017-12-27T02:17:14.698Z,0
2017-12-27T02:17:55.242Z,0
2017-12-27T02:18:35.855Z,0
2017-12-27T02:19:16.356Z,0
2017-12-27T02:19:56.899Z,0
2017-12-27T02:20:37.439Z,0
2017-12-27T02:21:17.989Z,0
2017-12-27T02:21:58.559Z,0
2017-12-27T02:22:39.125Z,0
2017-12-27T02:23:19.648Z,0
2017-12-27T02:24:00.207Z,0
2017-12-27T02:24:40.718Z,0
2017-12-27T02:25:21.284Z,0
2017-12-27T02:26:01.823Z,0
2017-12-27T02:26:42.334Z,0
2017-12-27T02:27:22.889Z,0
2017-12-27T02:28:03.449Z,0
2017-12-27T02:28:43.989Z,0
2017-12-27T02:29:24.524Z,0
2017-12-27T02:30:05.072Z,0
2017-12-27T02:30:45.630Z,0
2017-12-27T02:31:26.174Z,0
2017-12-27T02:32:06.693Z,0
2017-12-27T02:32:47.217Z,0
2017-12-27T02:33:27.766Z,0
2017-12-27T02:34:08.314Z,0
2017-12-27T02:34:48.847Z,0
2017-12-27T02:35:29.428Z,0
2017-12-27T02:36:09.965Z,0
2017-12-27T02:36:50.505Z,0
2017-12-27T02:37:31.068Z,0
2017-12-27T02:38:11.569Z,0
2017-12-27T02:38:52.118Z,0
2017-12-27T02:39:32.633Z,0
2017-12-27T02:40:13.182Z,0
2017-12-27T02:40:53.733Z,0
2017-12-27T02:41:34.287Z,0
2017-12-27T02:42:14.836Z,0
2017-12-27T02:42:55.343Z,0
2017-12-27T02:43:35.935Z,0
2017-12-27T02:44:16.401Z,0
2017-12-27T02:44:56.934Z,0
2017-12-27T02:45:37.510Z,0
2017-12-27T02:46:18.067Z,0
2017-12-27T02:46:58.572Z,0
2017-12-27T02:47:39.105Z,0
2017-12-27T02:48:19.644Z,0
2017-12-27T02:49:00.178Z,0
2017-12-27T02:49:40.730Z,0
2017-12-27T02:50:21.320Z,0
2017-12-27T02:51:01.842Z,0
2017-12-27T02:51:42.382Z,0
2017-12-27T02:52:22.900Z,0
2017-12-27T02:53:03.449Z,0
2017-12-27T02:53:44.018Z,0
2017-12-27T02:54:24.563Z,0
2017-12-27T02:55:05.103Z,0
2017-12-27T02:55:45.659Z,0
2017-12-27T02:56:26.231Z,0
2017-12-27T02:57:06.773Z,0
2017-12-27T02:57:47.316Z,0
2017-12-27T02:58:27.872Z,0
2017-12-27T02:59:08.380Z,0
2017-12-27T02:59:48.955Z,0
2017-12-27T03:00:29.495Z,0
2017-12-27T03:01:10.071Z,0
2017-12-27T03:01:50.598Z,0
2017-12-27T03:02:31.198Z,0
2017-12-27T03:03:11.689Z,0
2017-12-27T03:03:52.259Z,0
2017-12-27T03:04:32.812Z,0
2017-12-27T03:05:13.354Z,0
2017-12-27T03:05:53.901Z,0
2017-12-27T03:06:34.463Z,0
2017-12-27T03:07:15.015Z,0
2017-12-27T03:07:55.584Z,0
2017-12-27T03:08:36.139Z,0
2017-12-27T03:09:16.708Z,0
2017-12-27T03:09:57.242Z,0
2017-12-27T03:10:37.807Z,0
2017-12-27T03:11:18.313Z,0
2017-12-27T03:11:58.834Z,0
2017-12-27T03:12:39.352Z,0
2017-12-27T03:13:19.893Z,0
2017-12-27T03:14:00.400Z,0
2017-12-27T03:14:40.969Z,0
2017-12-27T03:15:21.516Z,0
2017-12-27T03:16:02.058Z,0
2017-12-27T03:16:42.629Z,0
2017-12-27T03:17:23.164Z,0
2017-12-27T03:18:03.723Z,0
2017-12-27T03:18:44.284Z,0
2017-12-27T03:19:24.824Z,0
2017-12-27T03:20:05.390Z,0
2017-12-27T03:20:45.952Z,0
2017-12-27T03:21:26.513Z,0
2017-12-27T03:22:07.035Z,0
2017-12-27T03:22:47.582Z,0
2017-12-27T03:23:28.160Z,0
2017-12-27T03:24:08.685Z,0
2017-12-27T03:24:49.215Z,0
2017-12-27T03:25:29.776Z,0
2017-12-27T03:26:10.274Z,0
2017-12-27T03:26:50.799Z,0
2017-12-27T03:27:31.354Z,0
2017-12-27T03:28:11.892Z,0
2017-12-27T03:28:52.428Z,0
2017-12-27T03:29:32.982Z,0
2017-12-27T03:30:14.358Z,0
2017-12-27T03:30:54.931Z,0
2017-12-27T03:31:35.465Z,0
2017-12-27T03:32:16.010Z,0
2017-12-27T03:32:56.519Z,0
2017-12-27T03:33:37.062Z,0
2017-12-27T03:34:17.600Z,0
2017-12-27T03:34:58.148Z,0
2017-12-27T03:35:38.699Z,0
2017-12-27T03:36:19.274Z,0
2017-12-27T03:36:59.836Z,0
2017-12-27T03:37:40.380Z,0
2017-12-27T03:38:20.947Z,0
2017-12-27T03:39:01.468Z,0
2017-12-27T03:39:42.039Z,0
2017-12-27T03:40:22.543Z,0
2017-12-27T03:41:03.088Z,0
2017-12-27T03:41:43.639Z,0
2017-12-27T03:42:24.166Z,0
2017-12-27T03:43:04.723Z,0
2017-12-27T03:43:45.259Z,0
2017-12-27T03:44:25.811Z,0
2017-12-27T03:45:06.364Z,0
2017-12-27T03:45:46.892Z,0
2017-12-27T03:46:27.457Z,0
2017-12-27T03:47:08.001Z,0
2017-12-27T03:47:48.545Z,0
2017-12-27T03:48:29.118Z,0
2017-12-27T03:49:09.670Z,0
2017-12-27T03:49:50.201Z,0
2017-12-27T03:50:30.753Z,0
2017-12-27T03:51:11.292Z,0
2017-12-27T03:51:51.856Z,0
2017-12-27T03:52:32.372Z,0
2017-12-27T03:53:12.950Z,0
2017-12-27T03:53:53.475Z,0
2017-12-27T03:54:34.016Z,0
2017-12-27T03:55:14.593Z,0
2017-12-27T03:55:55.134Z,0
2017-12-27T03:56:35.646Z,0
2017-12-27T03:57:16.177Z,0
2017-12-27T03:57:56.718Z,0
2017-12-27T03:58:37.284Z,0
2017-12-27T03:59:17.824Z,0
2017-12-27T03:59:58.949Z,0
2017-12-27T04:00:38.962Z,0
2017-12-27T04:01:19.480Z,0
2017-12-27T04:02:00.023Z,0
2017-12-27T04:02:40.559Z,0
2017-12-27T04:03:21.113Z,0
2017-12-27T04:04:01.637Z,0
2017-12-27T04:04:42.232Z,0
2017-12-27T04:05:22.684Z,0
2017-12-27T04:06:03.219Z,0
2017-12-27T04:06:43.744Z,0
2017-12-27T04:07:24.312Z,0
2017-12-27T04:08:04.866Z,0
2017-12-27T04:08:45.408Z,0
2017-12-27T04:09:25.965Z,0
2017-12-27T04:10:06.481Z,0
2017-12-27T04:10:47.039Z,0
2017-12-27T04:11:27.575Z,0
2017-12-27T04:12:08.107Z,0
2017-12-27T04:12:48.669Z,0
2017-12-27T04:13:29.213Z,0
2017-12-27T04:14:09.765Z,0
2017-12-27T04:14:50.313Z,0
2017-12-27T04:15:30.872Z,0
2017-12-27T04:16:11.374Z,0
2017-12-27T04:16:51.952Z,0
2017-12-27T04:17:32.472Z,0
2017-12-27T04:18:13.004Z,0
2017-12-27T04:18:53.546Z,0
2017-12-27T04:19:34.157Z,0
2017-12-27T04:20:14.608Z,0
2017-12-27T04:20:55.166Z,0
2017-12-27T04:21:35.718Z,0
2017-12-27T04:22:16.251Z,0
2017-12-27T04:22:56.781Z,0
2017-12-27T04:23:37.334Z,0
2017-12-27T04:24:17.863Z,0
2017-12-27T04:24:58.399Z,0
2017-12-27T04:25:38.947Z,0
2017-12-27T04:26:19.514Z,0
2017-12-27T04:27:00.041Z,0
2017-12-27T04:27:40.584Z,0
2017-12-27T04:28:21.136Z,0
2017-12-27T04:29:01.698Z,0
2017-12-27T04:29:42.232Z,0
2017-12-27T04:30:22.771Z,0
2017-12-27T04:31:03.313Z,0
2017-12-27T04:31:43.866Z,0
2017-12-27T04:32:24.430Z,0
2017-12-27T04:33:04.999Z,0
2017-12-27T04:33:45.555Z,0
2017-12-27T04:34:26.106Z,0
2017-12-27T04:35:06.640Z,0
2017-12-27T04:35:47.163Z,0
2017-12-27T04:36:27.718Z,0
2017-12-27T04:37:08.282Z,0
2017-12-27T04:37:48.800Z,0
2017-12-27T04:38:29.341Z,0
2017-12-27T04:39:09.935Z,0
2017-12-27T04:39:50.464Z,0
2017-12-27T04:40:31.009Z,0
2017-12-27T04:41:11.538Z,0
2017-12-27T04:41:52.104Z,0
2017-12-27T04:42:32.635Z,0
2017-12-27T04:43:13.185Z,0
2017-12-27T04:43:53.709Z,0
2017-12-27T04:44:34.267Z,0
2017-12-27T04:45:14.804Z,0
2017-12-27T04:45:55.359Z,0
2017-12-27T04:46:35.877Z,0
2017-12-27T04:47:16.410Z,0
2017-12-27T04:47:56.948Z,0
2017-12-27T04:48:37.491Z,0
2017-12-27T04:49:18.035Z,0
2017-12-27T04:49:58.593Z,0
2017-12-27T04:50:39.121Z,0
2017-12-27T04:51:19.676Z,0
2017-12-27T04:52:00.249Z,0
2017-12-27T04:52:40.766Z,0
2017-12-27T04:53:21.292Z,0
2017-12-27T04:54:01.828Z,0
2017-12-27T04:54:42.410Z,0
2017-12-27T04:55:22.968Z,0
2017-12-27T04:56:03.477Z,0
2017-12-27T04:56:44.004Z,0
2017-12-27T04:57:24.580Z,0
2017-12-27T04:58:05.125Z,0
2017-12-27T04:58:45.726Z,0
2017-12-27T04:59:26.304Z,0
2017-12-27T05:00:06.899Z,0
2017-12-27T05:00:47.375Z,0
2017-12-27T05:01:27.896Z,0
2017-12-27T05:02:08.433Z,0
2017-12-27T05:02:48.954Z,0
2017-12-27T05:03:29.492Z,0
2017-12-27T05:04:10.033Z,0
2017-12-27T05:04:50.609Z,0
2017-12-27T05:05:31.162Z,0
2017-12-27T05:06:11.716Z,0
2017-12-27T05:06:52.206Z,0
2017-12-27T05:07:32.760Z,0
2017-12-27T05:08:13.333Z,0
2017-12-27T05:08:53.833Z,0
2017-12-27T05:09:34.967Z,0
2017-12-27T05:10:14.919Z,0
2017-12-27T05:10:55.491Z,0
2017-12-27T05:11:36.006Z,0
2017-12-27T05:12:16.558Z,0
2017-12-27T05:12:57.086Z,0
2017-12-27T05:13:37.635Z,0
2017-12-27T05:14:18.168Z,0
2017-12-27T05:14:58.730Z,0
2017-12-27T05:15:39.238Z,0
2017-12-27T05:16:19.792Z,0
2017-12-27T05:17:00.320Z,0
2017-12-27T05:17:40.872Z,0
2017-12-27T05:18:21.396Z,0
2017-12-27T05:19:01.953Z,0
2017-12-27T05:19:42.480Z,0
2017-12-27T05:20:23.012Z,0
2017-12-27T05:21:03.558Z,0
2017-12-27T05:21:44.103Z,0
2017-12-27T05:22:24.609Z,0
2017-12-27T05:23:05.144Z,0
2017-12-27T05:23:45.704Z,0
2017-12-27T05:24:26.269Z,0
2017-12-27T05:25:06.792Z,0
2017-12-27T05:25:47.322Z,0
2017-12-27T05:26:27.849Z,0
2017-12-27T05:27:08.365Z,0
2017-12-27T05:27:48.925Z,0
2017-12-27T05:28:29.970Z,0
2017-12-27T05:29:09.993Z,0
2017-12-27T05:29:50.550Z,0
2017-12-27T05:30:31.149Z,0
2017-12-27T05:31:11.638Z,0
2017-12-27T05:31:52.186Z,0
2017-12-27T05:32:32.721Z,0
2017-12-27T05:33:13.296Z,0
2017-12-27T05:33:53.813Z,0
2017-12-27T05:34:34.358Z,0
2017-12-27T05:35:14.864Z,0
2017-12-27T05:35:55.412Z,0
2017-12-27T05:36:35.934Z,0
2017-12-27T05:37:16.480Z,0
2017-12-27T05:37:57.025Z,0
2017-12-27T05:38:37.583Z,0
2017-12-27T05:39:18.101Z,0
2017-12-27T05:39:58.631Z,0
2017-12-27T05:40:39.194Z,0
2017-12-27T05:41:19.723Z,0
2017-12-27T05:42:00.274Z,0
2017-12-27T05:42:40.823Z,0
2017-12-27T05:43:21.364Z,0
2017-12-27T05:44:01.901Z,0
2017-12-27T05:44:42.423Z,0
2017-12-27T05:45:22.972Z,0
2017-12-27T05:46:03.515Z,0
2017-12-27T05:46:44.069Z,0
2017-12-27T05:47:24.624Z,0
2017-12-27T05:48:05.214Z,0
2017-12-27T05:48:45.748Z,0
2017-12-27T05:49:26.285Z,0
2017-12-27T05:50:06.864Z,0
2017-12-27T05:50:47.976Z,0
2017-12-27T05:51:27.962Z,0
2017-12-27T05:52:09.982Z,0
2017-12-27T05:52:50.030Z,0
2017-12-27T05:53:30.667Z,0
2017-12-27T05:54:11.197Z,0
2017-12-27T05:54:51.771Z,0
2017-12-27T05:55:32.263Z,0
2017-12-27T05:56:12.805Z,0
2017-12-27T05:56:53.371Z,0
2017-12-27T05:57:33.902Z,0
2017-12-27T05:58:14.427Z,0
2017-12-27T05:58:54.999Z,0
2017-12-27T05:59:35.551Z,0
2017-12-27T06:00:16.103Z,0
2017-12-27T06:00:56.636Z,0
2017-12-27T06:01:37.196Z,0
2017-12-27T06:02:17.734Z,0
2017-12-27T06:02:58.280Z,0
2017-12-27T06:03:38.766Z,0
2017-12-27T06:04:19.313Z,0
2017-12-27T06:04:59.873Z,0
2017-12-27T06:05:40.435Z,0
2017-12-27T06:06:20.958Z,0
2017-12-27T06:07:01.491Z,0
2017-12-27T06:07:42.052Z,0
2017-12-27T06:08:22.628Z,0
2017-12-27T06:09:03.158Z,0
2017-12-27T06:09:43.728Z,0
2017-12-27T06:10:24.236Z,0
2017-12-27T06:11:04.783Z,0
2017-12-27T06:11:45.360Z,0
2017-12-27T06:12:25.854Z,0
2017-12-27T06:13:06.390Z,0
2017-12-27T06:13:46.933Z,0
2017-12-27T06:14:27.458Z,0
2017-12-27T06:15:07.985Z,0
2017-12-27T06:15:48.515Z,0
2017-12-27T06:16:29.043Z,0
2017-12-27T06:17:09.594Z,0
2017-12-27T06:17:50.129Z,0
2017-12-27T06:18:30.669Z,0
2017-12-27T06:19:11.178Z,0
2017-12-27T06:19:51.707Z,0
2017-12-27T06:20:32.247Z,0
2017-12-27T06:21:12.787Z,0
2017-12-27T06:21:53.323Z,0
2017-12-27T06:22:33.837Z,0
2017-12-27T06:23:14.392Z,0
2017-12-27T06:23:54.963Z,0
2017-12-27T06:24:35.559Z,0
2017-12-27T06:25:17.016Z,0
2017-12-27T06:25:57.564Z,0
2017-12-27T06:26:38.129Z,0
2017-12-27T06:27:18.688Z,0
2017-12-27T06:27:59.245Z,0
2017-12-27T06:28:39.730Z,0
2017-12-27T06:29:20.268Z,0
2017-12-27T06:30:00.800Z,0
2017-12-27T06:30:41.341Z,0
2017-12-27T06:31:21.942Z,0
2017-12-27T06:32:02.445Z,0
2017-12-27T06:32:43.020Z,0
2017-12-27T06:33:23.534Z,0
2017-12-27T06:34:04.099Z,0
2017-12-27T06:34:44.659Z,0
2017-12-27T06:35:25.178Z,0
2017-12-27T06:36:05.716Z,0
2017-12-27T06:36:46.252Z,0
2017-12-27T06:37:26.797Z,0
2017-12-27T06:38:07.366Z,0
2017-12-27T06:38:47.930Z,0
2017-12-27T06:39:28.467Z,0
2017-12-27T06:40:09.028Z,0
2017-12-27T06:40:49.579Z,0
2017-12-27T06:41:30.127Z,0
2017-12-27T06:42:10.644Z,0
2017-12-27T06:42:51.173Z,0
2017-12-27T06:43:31.725Z,0
2017-12-27T06:44:12.278Z,0
2017-12-27T06:44:52.802Z,0
2017-12-27T06:45:33.345Z,0
2017-12-27T06:46:13.908Z,0
2017-12-27T06:46:54.415Z,0
2017-12-27T06:47:34.943Z,0
2017-12-27T06:48:15.497Z,0
2017-12-27T06:48:56.043Z,0
2017-12-27T06:49:36.556Z,0
2017-12-27T06:50:17.096Z,0
2017-12-27T06:50:57.617Z,0
2017-12-27T06:51:38.177Z,0
2017-12-27T06:52:18.719Z,0
2017-12-27T06:52:59.258Z,0
2017-12-27T06:53:39.833Z,0
2017-12-27T06:54:20.389Z,0
2017-12-27T06:55:00.953Z,0
2017-12-27T06:55:41.479Z,0
2017-12-27T06:56:22.156Z,0
2017-12-27T06:57:02.693Z,0
2017-12-27T06:57:43.227Z,0
2017-12-27T06:58:23.782Z,0
2017-12-27T06:59:04.322Z,0
2017-12-27T06:59:44.858Z,0
2017-12-27T07:00:25.408Z,0
2017-12-27T07:01:05.973Z,0
2017-12-27T07:01:46.536Z,0
2017-12-27T07:02:27.081Z,0
2017-12-27T07:03:07.624Z,0
2017-12-27T07:03:48.200Z,0
2017-12-27T07:04:28.744Z,0
2017-12-27T07:05:09.278Z,0
2017-12-27T07:05:49.816Z,0
2017-12-27T07:06:30.368Z,0
2017-12-27T07:07:10.902Z,0
2017-12-27T07:07:51.457Z,0
2017-12-27T07:08:32.033Z,0
2017-12-27T07:09:12.582Z,0
2017-12-27T07:09:53.134Z,0
2017-12-27T07:10:33.677Z,0
2017-12-27T07:11:14.208Z,0
2017-12-27T07:11:54.741Z,0
2017-12-27T07:12:35.283Z,0
2017-12-27T07:13:16.093Z,0
2017-12-27T07:13:56.645Z,0
2017-12-27T07:14:37.180Z,0
2017-12-27T07:15:17.730Z,0
2017-12-27T07:15:58.282Z,0
2017-12-27T07:16:38.838Z,0
2017-12-27T07:17:19.412Z,0
2017-12-27T07:17:59.945Z,0
2017-12-27T07:18:40.496Z,0
2017-12-27T07:19:21.056Z,0
2017-12-27T07:20:01.617Z,0
2017-12-27T07:20:42.148Z,0
2017-12-27T07:21:22.713Z,0
2017-12-27T07:22:03.272Z,0
2017-12-27T07:22:43.837Z,0
2017-12-27T07:23:24.373Z,0
2017-12-27T07:24:04.937Z,0
2017-12-27T07:24:45.485Z,0
2017-12-27T07:25:26.035Z,0
2017-12-27T07:26:06.571Z,0
2017-12-27T07:26:47.080Z,0
2017-12-27T07:27:27.673Z,0
2017-12-27T07:28:08.246Z,0
2017-12-27T07:28:48.762Z,0
2017-12-27T07:29:29.317Z,0
2017-12-27T07:30:09.853Z,0
2017-12-27T07:30:50.363Z,0
2017-12-27T07:31:30.889Z,0
2017-12-27T07:32:11.418Z,0
2017-12-27T07:32:51.956Z,0
2017-12-27T07:33:32.511Z,0
2017-12-27T07:34:13.060Z,0
2017-12-27T07:34:53.687Z,0
2017-12-27T07:35:34.184Z,0
2017-12-27T07:36:14.733Z,0
2017-12-27T07:36:55.268Z,0
2017-12-27T07:37:35.790Z,0
2017-12-27T07:38:16.346Z,0
2017-12-27T07:38:56.893Z,0
2017-12-27T07:39:37.438Z,0
2017-12-27T07:40:17.971Z,0
2017-12-27T07:40:58.522Z,0
2017-12-27T07:41:39.070Z,0
2017-12-27T07:42:19.647Z,0
2017-12-27T07:43:00.190Z,0
2017-12-27T07:43:40.730Z,0
2017-12-27T07:44:21.276Z,0
2017-12-27T07:45:01.812Z,0
2017-12-27T07:45:42.345Z,0
2017-12-27T07:46:22.882Z,0
2017-12-27T07:47:03.423Z,0
2017-12-27T07:47:43.967Z,0
2017-12-27T07:48:24.503Z,0
2017-12-27T07:49:05.045Z,0
2017-12-27T07:49:45.594Z,0
2017-12-27T07:50:26.133Z,0
2017-12-27T07:51:06.645Z,0
2017-12-27T07:51:47.232Z,5
2017-12-27T07:52:27.760Z,5
2017-12-27T07:53:08.297Z,5
2017-12-27T07:53:48.852Z,5
2017-12-27T07:54:29.409Z,5
2017-12-27T07:55:09.972Z,5
2017-12-27T07:55:50.521Z,5
2017-12-27T07:56:31.035Z,5
2017-12-27T07:57:11.551Z,5
2017-12-27T07:57:52.078Z,5
2017-12-27T07:58:32.676Z,5
2017-12-27T07:59:13.225Z,5
2017-12-27T07:59:53.768Z,5
2017-12-27T08:00:34.326Z,5
2017-12-27T08:01:14.887Z,5
2017-12-27T08:01:55.419Z,5
2017-12-27T08:02:35.977Z,5
2017-12-27T08:03:16.517Z,5
2017-12-27T08:03:57.064Z,5
2017-12-27T08:04:37.584Z,5
2017-12-27T08:05:18.151Z,5
2017-12-27T08:05:58.722Z,5
2017-12-27T08:06:39.277Z,5
2017-12-27T08:07:19.793Z,5
2017-12-27T08:08:00.329Z,5
2017-12-27T08:08:40.880Z,5
2017-12-27T08:09:21.440Z,5
2017-12-27T08:10:02.040Z,5
2017-12-27T08:10:42.579Z,5
2017-12-27T08:11:23.231Z,10
2017-12-27T08:12:03.782Z,10
2017-12-27T08:12:44.346Z,5
2017-12-27T08:13:24.904Z,5
2017-12-27T08:14:05.461Z,5
2017-12-27T08:14:46.015Z,5
2017-12-27T08:15:26.606Z,5
2017-12-27T08:16:07.148Z,5
2017-12-27T08:16:47.698Z,5
2017-12-27T08:17:28.247Z,5
2017-12-27T08:18:08.829Z,5
2017-12-27T08:18:49.391Z,5
2017-12-27T08:19:29.893Z,5
2017-12-27T08:20:10.527Z,5
2017-12-27T08:20:51.213Z,5
2017-12-27T08:21:31.785Z,5
2017-12-27T08:22:12.340Z,5
2017-12-27T08:22:52.877Z,5
2017-12-27T08:23:33.383Z,5
2017-12-27T08:24:13.928Z,5
2017-12-27T08:24:54.481Z,10
2017-12-27T08:25:35.017Z,10
2017-12-27T08:26:15.564Z,10
2017-12-27T08:26:56.111Z,10
2017-12-27T08:27:36.694Z,5
2017-12-27T08:28:17.252Z,5
2017-12-27T08:28:57.811Z,5
2017-12-27T08:29:38.353Z,5
2017-12-27T08:30:18.927Z,5
2017-12-27T08:30:59.450Z,5
2017-12-27T08:31:39.986Z,5
2017-12-27T08:32:20.532Z,10
2017-12-27T08:33:01.103Z,10
2017-12-27T08:33:41.667Z,10
2017-12-27T08:34:22.210Z,10
2017-12-27T08:35:02.762Z,10
2017-12-27T08:35:44.213Z,10
2017-12-27T08:36:24.774Z,10
2017-12-27T08:37:05.341Z,10
2017-12-27T08:37:45.884Z,10
2017-12-27T08:38:26.423Z,10
2017-12-27T08:39:07.007Z,10
2017-12-27T08:39:47.502Z,15
2017-12-27T08:40:28.031Z,15
2017-12-27T08:41:08.580Z,15
2017-12-27T08:41:49.103Z,15
2017-12-27T08:42:29.654Z,15
2017-12-27T08:43:10.215Z,15
2017-12-27T08:43:50.788Z,15
2017-12-27T08:44:31.310Z,15
2017-12-27T08:45:11.894Z,15
2017-12-27T08:45:52.418Z,15
2017-12-27T08:46:32.961Z,15
2017-12-27T08:47:13.531Z,15
2017-12-27T08:47:54.083Z,15
2017-12-27T08:48:34.634Z,20
2017-12-27T08:49:15.183Z,20
2017-12-27T08:49:55.748Z,20
2017-12-27T08:50:36.317Z,20
2017-12-27T08:51:16.882Z,20
2017-12-27T08:51:57.435Z,20
2017-12-27T08:52:37.993Z,20
2017-12-27T08:53:18.521Z,20
2017-12-27T08:53:59.102Z,20
2017-12-27T08:54:39.614Z,15
2017-12-27T08:55:20.161Z,15
2017-12-27T08:56:00.652Z,15
2017-12-27T08:56:41.210Z,15
2017-12-27T08:57:21.745Z,15
2017-12-27T08:58:02.285Z,20
2017-12-27T08:58:42.861Z,20
2017-12-27T08:59:23.390Z,20
2017-12-27T09:00:03.924Z,20
2017-12-27T09:00:44.507Z,20
2017-12-27T09:01:25.034Z,20
2017-12-27T09:02:05.584Z,20
2017-12-27T09:02:46.166Z,20
2017-12-27T09:03:26.724Z,20
2017-12-27T09:04:07.309Z,20
2017-12-27T09:04:47.806Z,20
2017-12-27T09:05:28.369Z,20
2017-12-27T09:06:08.902Z,20
2017-12-27T09:06:49.458Z,20
2017-12-27T09:07:30.004Z,20
2017-12-27T09:08:10.568Z,20
2017-12-27T09:08:51.101Z,20
2017-12-27T09:09:31.656Z,25
2017-12-27T09:10:12.227Z,25
2017-12-27T09:10:52.753Z,25
2017-12-27T09:11:33.346Z,25
2017-12-27T09:12:13.851Z,25
2017-12-27T09:12:54.397Z,25
2017-12-27T09:13:34.933Z,25
2017-12-27T09:14:15.488Z,25
2017-12-27T09:14:56.033Z,25
2017-12-27T09:15:36.579Z,25
2017-12-27T09:16:17.128Z,25
2017-12-27T09:16:57.683Z,30
2017-12-27T09:17:38.241Z,30
2017-12-27T09:18:18.771Z,30
2017-12-27T09:18:59.334Z,30
2017-12-27T09:19:39.895Z,35
2017-12-27T09:20:20.423Z,35
2017-12-27T09:21:00.957Z,35
2017-12-27T09:21:41.498Z,35
2017-12-27T09:22:22.004Z,35
2017-12-27T09:23:02.555Z,40
2017-12-27T09:23:43.110Z,40
2017-12-27T09:24:23.650Z,40
2017-12-27T09:25:04.192Z,40
2017-12-27T09:25:44.742Z,45
2017-12-27T09:26:25.296Z,45
2017-12-27T09:27:05.856Z,45
2017-12-27T09:27:46.410Z,45
2017-12-27T09:28:26.975Z,45
2017-12-27T09:29:07.534Z,45
2017-12-27T09:29:48.082Z,45
2017-12-27T09:30:28.623Z,45
2017-12-27T09:31:09.164Z,45
2017-12-27T09:31:49.725Z,45
2017-12-27T09:32:30.274Z,45
2017-12-27T09:33:10.822Z,45
2017-12-27T09:33:51.417Z,45
2017-12-27T09:34:31.968Z,45
2017-12-27T09:35:12.514Z,45
2017-12-27T09:35:53.066Z,45
2017-12-27T09:36:33.613Z,45
2017-12-27T09:37:14.165Z,45
2017-12-27T09:37:54.729Z,50
2017-12-27T09:38:35.239Z,50
2017-12-27T09:39:15.780Z,50
2017-12-27T09:39:56.344Z,50
2017-12-27T09:40:36.906Z,50
2017-12-27T09:41:17.466Z,50
2017-12-27T09:41:58.002Z,50
2017-12-27T09:42:38.593Z,50
2017-12-27T09:43:19.166Z,50
2017-12-27T09:43:59.727Z,45
2017-12-27T09:44:40.294Z,45
2017-12-27T09:45:20.828Z,45
2017-12-27T09:46:01.413Z,45
2017-12-27T09:46:41.974Z,45
2017-12-27T09:47:22.515Z,40
2017-12-27T09:48:03.088Z,40
2017-12-27T09:48:43.619Z,45
2017-12-27T09:49:24.189Z,45
2017-12-27T09:50:04.737Z,45
2017-12-27T09:50:45.286Z,45
2017-12-27T09:51:25.816Z,45
2017-12-27T09:52:06.345Z,45
2017-12-27T09:52:46.898Z,45
2017-12-27T09:53:27.449Z,45
2017-12-27T09:54:07.987Z,45
2017-12-27T09:54:48.553Z,45
2017-12-27T09:55:29.085Z,45
2017-12-27T09:56:09.644Z,45